Airfield :
LOGIN :

Register | Disclaimer

   EN    FR    IT 

 










Legend :    VFR   Marginal VFR   IFR   Intensive IFR   Very Intensive IFR
Visi :
Ceiling :
>= 8 km
>= 3000ft
5 to 8 km
1000 to 3000 ft
1500m to 5 km
500 to 1000 ft
800 to 1500m
200 to 500 ft
< 800m
< 200 ft
Symbols :   Thunderstorms  Fog  Heavy snow  Heavy precipitations  Wind > 20 kt
SIGMETs :     Misc.  Thunderstorms  Icing  Turbulence  Mountain Waves  Volcanic Ashes






- Airport Elevation : 276 ft


LYVR - Vršac International

CURRENT METAR :
  • 291930Z AUTO 32003KT 9999 FEW024/// BKN029/// OVC033/// 01/00 Q1025

EXPIRED METARs :
  • 291900Z AUTO 35004KT 9999 OVC030/// 01/M00 Q1025
  • 291830Z AUTO 32004KT 9999 FEW024/// OVC028/// 01/00 Q1025
  • 291800Z AUTO 33004KT 9999 OVC030/// 01/01 Q1025
  • 291730Z AUTO 32005KT 9999 FEW029/// OVC033/// 01/01 Q1025
  • 291700Z AUTO 31005KT 9999 OVC036/// 01/01 Q1025

TAF TAF LYVR
Valid from the 29 at 18:00 until the 30 at 18:00 UTC


291700Z 2918/3018 28005KT 9999 SCT010 BKN027 TX03/3012Z TNM01/3006Z
TEMPO 3003/3008 4000 BR BKN006 BKN027



MET'MAP, your aeronautical weather chart ! - Copyright ORBIFLY December 2007 - Disclaimer

ORBIFLY MET'MAP TEAM :

Programming & Development : Alexandra Zaïnal
Original concept : Baudouin d'Aumeries
Technical & hardware support : Manuel Goepfert
Assistance : Marc-Olivier Méhu




SOURCES & CREDITS :

   NOAA